sensor_id;sensor_type;location;lat;lon;timestamp;temperature;humidity
67194;DHT22;54121;53.508;49.422;2023-04-15T00:01:08;-0.50;26.10
67194;DHT22;54121;53.508;49.422;2023-04-15T00:03:34;-0.60;26.20
67194;DHT22;54121;53.508;49.422;2023-04-15T00:06:05;-0.60;26.40
67194;DHT22;54121;53.508;49.422;2023-04-15T00:08:31;-0.70;26.20
67194;DHT22;54121;53.508;49.422;2023-04-15T00:11:00;-0.60;26.30
67194;DHT22;54121;53.508;49.422;2023-04-15T00:13:32;-0.50;26.30
67194;DHT22;54121;53.508;49.422;2023-04-15T00:16:01;-0.60;26.30
67194;DHT22;54121;53.508;49.422;2023-04-15T00:18:31;-0.60;26.40
67194;DHT22;54121;53.508;49.422;2023-04-15T00:20:59;-0.70;26.60
67194;DHT22;54121;53.508;49.422;2023-04-15T00:23:28;-0.80;26.80
67194;DHT22;54121;53.508;49.422;2023-04-15T00:25:56;-0.70;26.80
67194;DHT22;54121;53.508;49.422;2023-04-15T00:28:25;-0.80;26.70
67194;DHT22;54121;53.508;49.422;2023-04-15T00:30:52;-0.90;26.90
67194;DHT22;54121;53.508;49.422;2023-04-15T00:33:18;-0.80;27.00
67194;DHT22;54121;53.508;49.422;2023-04-15T00:35:44;-0.90;27.10
67194;DHT22;54121;53.508;49.422;2023-04-15T00:38:10;-0.90;27.00
67194;DHT22;54121;53.508;49.422;2023-04-15T00:40:37;-1.00;27.10
67194;DHT22;54121;53.508;49.422;2023-04-15T00:43:03;-0.90;27.20
67194;DHT22;54121;53.508;49.422;2023-04-15T00:45:30;-0.80;27.20
67194;DHT22;54121;53.508;49.422;2023-04-15T00:47:56;-0.90;27.10
67194;DHT22;54121;53.508;49.422;2023-04-15T00:50:25;-0.80;27.10
67194;DHT22;54121;53.508;49.422;2023-04-15T00:52:54;-1.00;27.40
67194;DHT22;54121;53.508;49.422;2023-04-15T00:55:20;-1.00;27.40
67194;DHT22;54121;53.508;49.422;2023-04-15T00:57:46;1.40;28.40
67194;DHT22;54121;53.508;49.422;2023-04-15T01:00:14;-0.80;27.50
67194;DHT22;54121;53.508;49.422;2023-04-15T01:02:45;-0.90;27.30
67194;DHT22;54121;53.508;49.422;2023-04-15T01:05:14;-1.00;27.60
67194;DHT22;54121;53.508;49.422;2023-04-15T01:07:45;-0.90;27.50
67194;DHT22;54121;53.508;49.422;2023-04-15T01:10:14;-1.00;27.50
67194;DHT22;54121;53.508;49.422;2023-04-15T01:12:42;-1.10;27.70
67194;DHT22;54121;53.508;49.422;2023-04-15T01:15:09;-1.10;27.80
67194;DHT22;54121;53.508;49.422;2023-04-15T01:17:38;-1.10;28.00
67194;DHT22;54121;53.508;49.422;2023-04-15T01:20:09;-1.30;28.20
67194;DHT22;54121;53.508;49.422;2023-04-15T01:22:37;-1.30;28.40
67194;DHT22;54121;53.508;49.422;2023-04-15T01:25:08;-1.30;28.30
67194;DHT22;54121;53.508;49.422;2023-04-15T01:27:35;-1.50;28.40
67194;DHT22;54121;53.508;49.422;2023-04-15T01:30:03;-1.60;28.60
67194;DHT22;54121;53.508;49.422;2023-04-15T01:32:30;-1.60;29.00
67194;DHT22;54121;53.508;49.422;2023-04-15T01:34:59;-1.50;28.80
67194;DHT22;54121;53.508;49.422;2023-04-15T01:37:25;-1.70;29.10
67194;DHT22;54121;53.508;49.422;2023-04-15T01:39:51;-1.90;29.50
67194;DHT22;54121;53.508;49.422;2023-04-15T01:42:19;-1.70;29.60
67194;DHT22;54121;53.508;49.422;2023-04-15T01:44:46;-1.70;29.40
67194;DHT22;54121;53.508;49.422;2023-04-15T01:47:14;-1.70;29.80
67194;DHT22;54121;53.508;49.422;2023-04-15T01:49:43;-1.90;29.50
67194;DHT22;54121;53.508;49.422;2023-04-15T01:52:11;-1.70;29.60
67194;DHT22;54121;53.508;49.422;2023-04-15T01:54:37;-1.80;29.70
67194;DHT22;54121;53.508;49.422;2023-04-15T01:57:03;-1.90;29.50
67194;DHT22;54121;53.508;49.422;2023-04-15T01:59:30;-1.90;29.80
67194;DHT22;54121;53.508;49.422;2023-04-15T02:01:57;-1.80;29.70
67194;DHT22;54121;53.508;49.422;2023-04-15T02:04:23;-1.90;29.80
67194;DHT22;54121;53.508;49.422;2023-04-15T02:06:49;-2.00;30.00
67194;DHT22;54121;53.508;49.422;2023-04-15T02:09:18;-1.80;30.00
67194;DHT22;54121;53.508;49.422;2023-04-15T02:11:49;-1.50;29.70
67194;DHT22;54121;53.508;49.422;2023-04-15T02:14:15;-1.40;29.20
67194;DHT22;54121;53.508;49.422;2023-04-15T02:16:43;-1.20;29.20
67194;DHT22;54121;53.508;49.422;2023-04-15T02:19:10;-1.20;29.10
67194;DHT22;54121;53.508;49.422;2023-04-15T02:21:36;-0.90;28.80
67194;DHT22;54121;53.508;49.422;2023-04-15T02:24:02;-0.30;29.20
67194;DHT22;54121;53.508;49.422;2023-04-15T02:26:29;-0.20;27.60
67194;DHT22;54121;53.508;49.422;2023-04-15T02:28:57;-0.30;27.30
67194;DHT22;54121;53.508;49.422;2023-04-15T02:31:24;-0.10;27.30
67194;DHT22;54121;53.508;49.422;2023-04-15T02:33:50;0.50;26.90
67194;DHT22;54121;53.508;49.422;2023-04-15T02:36:16;0.70;26.10
67194;DHT22;54121;53.508;49.422;2023-04-15T02:38:42;0.60;26.00
67194;DHT22;54121;53.508;49.422;2023-04-15T02:41:09;0.60;26.30
67194;DHT22;54121;53.508;49.422;2023-04-15T02:43:39;1.00;25.80
67194;DHT22;54121;53.508;49.422;2023-04-15T02:46:08;1.10;25.40
67194;DHT22;54121;53.508;49.422;2023-04-15T02:48:39;1.10;25.60
67194;DHT22;54121;53.508;49.422;2023-04-15T02:51:12;1.20;25.40
67194;DHT22;54121;53.508;49.422;2023-04-15T02:53:41;1.60;25.10
67194;DHT22;54121;53.508;49.422;2023-04-15T02:56:08;2.00;24.70
67194;DHT22;54121;53.508;49.422;2023-04-15T02:58:34;2.40;23.90
67194;DHT22;54121;53.508;49.422;2023-04-15T03:01:04;2.50;23.80
67194;DHT22;54121;53.508;49.422;2023-04-15T03:03:30;2.80;23.60
67194;DHT22;54121;53.508;49.422;2023-04-15T03:05:57;2.80;22.90
67194;DHT22;54121;53.508;49.422;2023-04-15T03:08:26;2.90;23.10
67194;DHT22;54121;53.508;49.422;2023-04-15T03:10:52;3.10;22.60
67194;DHT22;54121;53.508;49.422;2023-04-15T03:13:21;3.30;22.50
67194;DHT22;54121;53.508;49.422;2023-04-15T03:15:52;3.40;22.00
67194;DHT22;54121;53.508;49.422;2023-04-15T03:18:23;3.90;21.50
67194;DHT22;54121;53.508;49.422;2023-04-15T03:20:52;3.80;21.30
67194;DHT22;54121;53.508;49.422;2023-04-15T03:23:18;4.10;21.10
67194;DHT22;54121;53.508;49.422;2023-04-15T03:25:44;4.30;21.00
67194;DHT22;54121;53.508;49.422;2023-04-15T03:28:11;4.60;20.50
67194;DHT22;54121;53.508;49.422;2023-04-15T03:30:37;4.60;20.60
67194;DHT22;54121;53.508;49.422;2023-04-15T03:33:03;5.00;21.10
67194;DHT22;54121;53.508;49.422;2023-04-15T03:35:32;5.10;19.80
67194;DHT22;54121;53.508;49.422;2023-04-15T03:38:01;5.00;19.80
67194;DHT22;54121;53.508;49.422;2023-04-15T03:40:29;5.30;19.70
67194;DHT22;54121;53.508;49.422;2023-04-15T03:42:58;5.40;19.60
67194;DHT22;54121;53.508;49.422;2023-04-15T03:45:24;5.80;19.10
67194;DHT22;54121;53.508;49.422;2023-04-15T03:47:53;5.60;19.00
67194;DHT22;54121;53.508;49.422;2023-04-15T03:50:20;6.20;18.80
67194;DHT22;54121;53.508;49.422;2023-04-15T03:52:51;6.50;18.20
67194;DHT22;54121;53.508;49.422;2023-04-15T03:55:19;6.10;18.20
67194;DHT22;54121;53.508;49.422;2023-04-15T03:57:48;6.00;18.40
67194;DHT22;54121;53.508;49.422;2023-04-15T04:00:17;6.30;18.70
67194;DHT22;54121;53.508;49.422;2023-04-15T04:02:46;6.20;18.20
67194;DHT22;54121;53.508;49.422;2023-04-15T04:05:15;7.10;17.60
67194;DHT22;54121;53.508;49.422;2023-04-15T04:07:41;7.80;16.60
67194;DHT22;54121;53.508;49.422;2023-04-15T04:10:10;7.80;16.40
67194;DHT22;54121;53.508;49.422;2023-04-15T04:12:39;7.80;15.80
67194;DHT22;54121;53.508;49.422;2023-04-15T04:15:07;8.40;15.60
67194;DHT22;54121;53.508;49.422;2023-04-15T04:17:36;8.40;15.00
67194;DHT22;54121;53.508;49.422;2023-04-15T04:20:04;8.30;15.00
67194;DHT22;54121;53.508;49.422;2023-04-15T04:22:35;8.10;15.50
67194;DHT22;54121;53.508;49.422;2023-04-15T04:25:04;8.30;15.10
67194;DHT22;54121;53.508;49.422;2023-04-15T04:27:34;8.70;15.00
67194;DHT22;54121;53.508;49.422;2023-04-15T04:30:03;9.50;13.90
67194;DHT22;54121;53.508;49.422;2023-04-15T04:32:29;9.20;14.00
67194;DHT22;54121;53.508;49.422;2023-04-15T04:34:58;10.10;13.90
67194;DHT22;54121;53.508;49.422;2023-04-15T04:37:25;10.00;13.80
67194;DHT22;54121;53.508;49.422;2023-04-15T04:39:51;10.60;13.00
67194;DHT22;54121;53.508;49.422;2023-04-15T04:42:25;10.70;12.70
67194;DHT22;54121;53.508;49.422;2023-04-15T04:44:56;10.20;13.00
67194;DHT22;54121;53.508;49.422;2023-04-15T04:47:22;10.70;13.00
67194;DHT22;54121;53.508;49.422;2023-04-15T04:49:48;11.70;12.40
67194;DHT22;54121;53.508;49.422;2023-04-15T04:52:17;12.50;11.60
67194;DHT22;54121;53.508;49.422;2023-04-15T04:54:45;12.70;11.30
67194;DHT22;54121;53.508;49.422;2023-04-15T04:57:12;13.60;10.90
67194;DHT22;54121;53.508;49.422;2023-04-15T04:59:40;14.80;9.30
67194;DHT22;54121;53.508;49.422;2023-04-15T05:02:09;15.10;9.00
67194;DHT22;54121;53.508;49.422;2023-04-15T05:04:38;14.30;9.40
67194;DHT22;54121;53.508;49.422;2023-04-15T05:07:07;14.10;9.90
67194;DHT22;54121;53.508;49.422;2023-04-15T05:09:35;14.00;11.00
67194;DHT22;54121;53.508;49.422;2023-04-15T05:12:05;14.70;9.30
67194;DHT22;54121;53.508;49.422;2023-04-15T05:14:31;14.30;9.20
67194;DHT22;54121;53.508;49.422;2023-04-15T05:17:00;13.80;9.30
67194;DHT22;54121;53.508;49.422;2023-04-15T05:19:29;14.20;10.00
67194;DHT22;54121;53.508;49.422;2023-04-15T05:21:55;14.00;10.00
67194;DHT22;54121;53.508;49.422;2023-04-15T05:24:24;14.60;9.70
67194;DHT22;54121;53.508;49.422;2023-04-15T05:26:53;14.60;9.80
67194;DHT22;54121;53.508;49.422;2023-04-15T05:29:25;14.50;9.80
67194;DHT22;54121;53.508;49.422;2023-04-15T05:31:55;14.10;9.80
67194;DHT22;54121;53.508;49.422;2023-04-15T05:34:21;14.40;9.20
67194;DHT22;54121;53.508;49.422;2023-04-15T05:36:50;14.20;9.40
67194;DHT22;54121;53.508;49.422;2023-04-15T05:39:17;14.30;9.40
67194;DHT22;54121;53.508;49.422;2023-04-15T05:41:46;13.90;9.70
67194;DHT22;54121;53.508;49.422;2023-04-15T05:44:15;13.90;9.60
67194;DHT22;54121;53.508;49.422;2023-04-15T05:46:41;13.90;10.00
67194;DHT22;54121;53.508;49.422;2023-04-15T05:49:10;14.70;9.60
67194;DHT22;54121;53.508;49.422;2023-04-15T05:51:36;15.10;9.00
67194;DHT22;54121;53.508;49.422;2023-04-15T05:54:08;15.00;8.70
67194;DHT22;54121;53.508;49.422;2023-04-15T05:56:39;15.00;8.70
67194;DHT22;54121;53.508;49.422;2023-04-15T05:59:07;16.10;8.10
67194;DHT22;54121;53.508;49.422;2023-04-15T06:01:34;15.30;8.30
67194;DHT22;54121;53.508;49.422;2023-04-15T06:04:03;14.90;8.40
67194;DHT22;54121;53.508;49.422;2023-04-15T06:06:31;15.20;8.40
67194;DHT22;54121;53.508;49.422;2023-04-15T06:09:00;14.90;8.70
67194;DHT22;54121;53.508;49.422;2023-04-15T06:11:28;14.60;9.20
67194;DHT22;54121;53.508;49.422;2023-04-15T06:13:57;15.10;9.00
67194;DHT22;54121;53.508;49.422;2023-04-15T06:16:23;15.50;8.50
67194;DHT22;54121;53.508;49.422;2023-04-15T06:18:52;15.90;8.40
67194;DHT22;54121;53.508;49.422;2023-04-15T06:21:21;15.20;8.40
67194;DHT22;54121;53.508;49.422;2023-04-15T06:23:47;15.30;8.20
67194;DHT22;54121;53.508;49.422;2023-04-15T06:26:16;15.30;8.60
67194;DHT22;54121;53.508;49.422;2023-04-15T06:28:51;15.90;8.10
67194;DHT22;54121;53.508;49.422;2023-04-15T06:31:17;16.70;7.40
67194;DHT22;54121;53.508;49.422;2023-04-15T06:33:49;16.30;7.30
67194;DHT22;54121;53.508;49.422;2023-04-15T06:36:15;15.90;7.90
67194;DHT22;54121;53.508;49.422;2023-04-15T06:38:44;15.80;8.10
67194;DHT22;54121;53.508;49.422;2023-04-15T06:41:10;16.00;7.90
67194;DHT22;54121;53.508;49.422;2023-04-15T06:43:36;15.70;8.00
67194;DHT22;54121;53.508;49.422;2023-04-15T06:46:05;16.20;7.90
67194;DHT22;54121;53.508;49.422;2023-04-15T06:48:31;16.00;7.30
67194;DHT22;54121;53.508;49.422;2023-04-15T06:51:01;16.20;7.80
67194;DHT22;54121;53.508;49.422;2023-04-15T06:53:31;16.00;7.70
67194;DHT22;54121;53.508;49.422;2023-04-15T06:56:02;16.30;7.90
67194;DHT22;54121;53.508;49.422;2023-04-15T06:58:29;16.00;7.70
67194;DHT22;54121;53.508;49.422;2023-04-15T07:00:57;16.10;7.80
67194;DHT22;54121;53.508;49.422;2023-04-15T07:03:26;16.10;8.00
67194;DHT22;54121;53.508;49.422;2023-04-15T07:05:53;15.90;7.90
67194;DHT22;54121;53.508;49.422;2023-04-15T07:08:19;16.10;7.80
67194;DHT22;54121;53.508;49.422;2023-04-15T07:10:45;16.80;7.20
67194;DHT22;54121;53.508;49.422;2023-04-15T07:13:12;16.60;7.20
67194;DHT22;54121;53.508;49.422;2023-04-15T07:15:40;16.50;6.90
67194;DHT22;54121;53.508;49.422;2023-04-15T07:18:09;16.80;6.90
67194;DHT22;54121;53.508;49.422;2023-04-15T07:20:38;16.90;6.60
67194;DHT22;54121;53.508;49.422;2023-04-15T07:23:04;17.70;6.00
67194;DHT22;54121;53.508;49.422;2023-04-15T07:25:31;17.80;6.20
67194;DHT22;54121;53.508;49.422;2023-04-15T07:27:57;19.90;4.80
67194;DHT22;54121;53.508;49.422;2023-04-15T07:30:25;18.80;5.10
67194;DHT22;54121;53.508;49.422;2023-04-15T07:32:54;20.00;4.50
67194;DHT22;54121;53.508;49.422;2023-04-15T07:35:21;19.10;5.00
67194;DHT22;54121;53.508;49.422;2023-04-15T07:37:49;20.20;4.10
67194;DHT22;54121;53.508;49.422;2023-04-15T07:40:18;20.70;3.70
67194;DHT22;54121;53.508;49.422;2023-04-15T07:42:49;20.00;3.90
67194;DHT22;54121;53.508;49.422;2023-04-15T07:45:18;20.60;3.90
67194;DHT22;54121;53.508;49.422;2023-04-15T07:47:45;19.60;4.70
67194;DHT22;54121;53.508;49.422;2023-04-15T07:50:11;19.80;4.80
67194;DHT22;54121;53.508;49.422;2023-04-15T07:52:38;19.70;4.50
67194;DHT22;54121;53.508;49.422;2023-04-15T07:55:05;19.40;4.70
67194;DHT22;54121;53.508;49.422;2023-04-15T07:57:31;19.60;4.70
67194;DHT22;54121;53.508;49.422;2023-04-15T07:59:58;19.50;4.70
67194;DHT22;54121;53.508;49.422;2023-04-15T08:02:25;19.60;4.90
67194;DHT22;54121;53.508;49.422;2023-04-15T08:04:53;19.70;4.60
67194;DHT22;54121;53.508;49.422;2023-04-15T08:07:22;20.10;4.50
67194;DHT22;54121;53.508;49.422;2023-04-15T08:09:51;19.60;4.40
67194;DHT22;54121;53.508;49.422;2023-04-15T08:12:19;19.10;4.70
67194;DHT22;54121;53.508;49.422;2023-04-15T08:14:51;19.10;4.90
67194;DHT22;54121;53.508;49.422;2023-04-15T08:17:17;19.20;4.60
67194;DHT22;54121;53.508;49.422;2023-04-15T08:19:46;19.30;4.80
67194;DHT22;54121;53.508;49.422;2023-04-15T08:22:13;20.20;4.30
67194;DHT22;54121;53.508;49.422;2023-04-15T08:24:39;19.50;4.20
67194;DHT22;54121;53.508;49.422;2023-04-15T08:27:05;19.80;4.30
67194;DHT22;54121;53.508;49.422;2023-04-15T08:29:32;20.10;4.10
67194;DHT22;54121;53.508;49.422;2023-04-15T08:31:59;20.00;4.00
67194;DHT22;54121;53.508;49.422;2023-04-15T08:34:28;19.60;3.90
67194;DHT22;54121;53.508;49.422;2023-04-15T08:36:57;19.80;4.10
67194;DHT22;54121;53.508;49.422;2023-04-15T08:39:25;19.40;3.90
67194;DHT22;54121;53.508;49.422;2023-04-15T08:42:03;19.20;4.20
67194;DHT22;54121;53.508;49.422;2023-04-15T08:44:35;19.80;4.30
67194;DHT22;54121;53.508;49.422;2023-04-15T08:47:07;20.20;4.00
67194;DHT22;54121;53.508;49.422;2023-04-15T08:49:38;20.10;4.20
67194;DHT22;54121;53.508;49.422;2023-04-15T08:52:07;20.80;3.60
67194;DHT22;54121;53.508;49.422;2023-04-15T08:54:39;20.30;4.10
67194;DHT22;54121;53.508;49.422;2023-04-15T08:57:09;20.70;3.50
67194;DHT22;54121;53.508;49.422;2023-04-15T08:59:35;20.80;3.40
67194;DHT22;54121;53.508;49.422;2023-04-15T09:02:03;20.60;3.40
67194;DHT22;54121;53.508;49.422;2023-04-15T09:04:31;21.30;3.00
67194;DHT22;54121;53.508;49.422;2023-04-15T09:07:00;21.20;3.20
67194;DHT22;54121;53.508;49.422;2023-04-15T09:09:26;20.80;3.20
67194;DHT22;54121;53.508;49.422;2023-04-15T09:11:56;21.10;3.30
67194;DHT22;54121;53.508;49.422;2023-04-15T09:14:25;21.40;3.10
67194;DHT22;54121;53.508;49.422;2023-04-15T09:16:58;21.50;2.80
67194;DHT22;54121;53.508;49.422;2023-04-15T09:19:25;20.80;3.40
67194;DHT22;54121;53.508;49.422;2023-04-15T09:21:55;21.50;2.90
67194;DHT22;54121;53.508;49.422;2023-04-15T09:24:24;22.30;2.50
67194;DHT22;54121;53.508;49.422;2023-04-15T09:26:52;22.40;2.10
67194;DHT22;54121;53.508;49.422;2023-04-15T09:29:20;22.00;2.80
67194;DHT22;54121;53.508;49.422;2023-04-15T09:31:51;22.10;2.40
67194;DHT22;54121;53.508;49.422;2023-04-15T09:34:20;22.50;2.30
67194;DHT22;54121;53.508;49.422;2023-04-15T09:36:55;22.20;2.60
67194;DHT22;54121;53.508;49.422;2023-04-15T09:39:22;22.30;2.10
67194;DHT22;54121;53.508;49.422;2023-04-15T09:42:06;23.00;2.00
67194;DHT22;54121;53.508;49.422;2023-04-15T09:44:35;23.20;2.00
67194;DHT22;54121;53.508;49.422;2023-04-15T09:47:04;23.00;1.50
67194;DHT22;54121;53.508;49.422;2023-04-15T09:49:30;23.20;1.70
67194;DHT22;54121;53.508;49.422;2023-04-15T09:52:00;23.60;1.60
67194;DHT22;54121;53.508;49.422;2023-04-15T09:54:34;23.30;1.50
67194;DHT22;54121;53.508;49.422;2023-04-15T09:57:06;23.40;1.80
67194;DHT22;54121;53.508;49.422;2023-04-15T09:59:35;23.30;1.60
67194;DHT22;54121;53.508;49.422;2023-04-15T10:02:04;23.80;1.30
67194;DHT22;54121;53.508;49.422;2023-04-15T10:04:34;23.60;1.50
67194;DHT22;54121;53.508;49.422;2023-04-15T10:07:04;24.10;1.40
67194;DHT22;54121;53.508;49.422;2023-04-15T10:09:34;23.40;1.60
67194;DHT22;54121;53.508;49.422;2023-04-15T10:12:03;24.90;1.10
67194;DHT22;54121;53.508;49.422;2023-04-15T10:14:35;24.70;1.00
67194;DHT22;54121;53.508;49.422;2023-04-15T10:17:03;25.40;1.00
67194;DHT22;54121;53.508;49.422;2023-04-15T10:19:30;24.40;1.00
67194;DHT22;54121;53.508;49.422;2023-04-15T10:22:01;24.80;1.00
67194;DHT22;54121;53.508;49.422;2023-04-15T10:24:30;24.40;1.00
67194;DHT22;54121;53.508;49.422;2023-04-15T10:26:57;24.40;1.00
67194;DHT22;54121;53.508;49.422;2023-04-15T10:29:26;24.90;1.00
67194;DHT22;54121;53.508;49.422;2023-04-15T10:31:58;24.50;1.00
67194;DHT22;54121;53.508;49.422;2023-04-15T10:34:25;24.40;1.00
67194;DHT22;54121;53.508;49.422;2023-04-15T10:36:55;24.30;1.10
67194;DHT22;54121;53.508;49.422;2023-04-15T10:42:16;24.10;1.00
67194;DHT22;54121;53.508;49.422;2023-04-15T10:44:47;25.10;1.00
67194;DHT22;54121;53.508;49.422;2023-04-15T10:47:18;26.20;1.00
67194;DHT22;54121;53.508;49.422;2023-04-15T10:49:48;25.70;1.00
67194;DHT22;54121;53.508;49.422;2023-04-15T10:52:16;25.80;1.00
67194;DHT22;54121;53.508;49.422;2023-04-15T10:54:44;25.70;1.00
67194;DHT22;54121;53.508;49.422;2023-04-15T10:57:15;26.60;1.00
67194;DHT22;54121;53.508;49.422;2023-04-15T11:00:08;25.80;1.00
67194;DHT22;54121;53.508;49.422;2023-04-15T11:02:42;25.80;1.00
67194;DHT22;54121;53.508;49.422;2023-04-15T11:05:12;26.80;1.00
67194;DHT22;54121;53.508;49.422;2023-04-15T11:18:51;26.90;1.00
67194;DHT22;54121;53.508;49.422;2023-04-15T11:23:18;26.50;1.00
67194;DHT22;54121;53.508;49.422;2023-04-15T11:25:45;26.70;1.00
67194;DHT22;54121;53.508;49.422;2023-04-15T11:28:13;27.30;1.00
67194;DHT22;54121;53.508;49.422;2023-04-15T11:30:44;26.90;1.00
67194;DHT22;54121;53.508;49.422;2023-04-15T11:33:15;27.50;1.00
67194;DHT22;54121;53.508;49.422;2023-04-15T11:35:41;27.90;1.00
67194;DHT22;54121;53.508;49.422;2023-04-15T11:38:11;28.10;1.00
67194;DHT22;54121;53.508;49.422;2023-04-15T11:40:38;28.00;1.00
67194;DHT22;54121;53.508;49.422;2023-04-15T11:43:09;27.50;1.00
67194;DHT22;54121;53.508;49.422;2023-04-15T11:45:36;27.50;1.00
67194;DHT22;54121;53.508;49.422;2023-04-15T11:48:11;28.30;1.00
67194;DHT22;54121;53.508;49.422;2023-04-15T11:50:39;28.20;1.00
67194;DHT22;54121;53.508;49.422;2023-04-15T11:53:06;28.50;1.00
67194;DHT22;54121;53.508;49.422;2023-04-15T11:55:51;28.20;1.00
67194;DHT22;54121;53.508;49.422;2023-04-15T11:58:21;28.10;1.00
67194;DHT22;54121;53.508;49.422;2023-04-15T12:03:24;28.10;1.00
67194;DHT22;54121;53.508;49.422;2023-04-15T12:11:18;28.50;1.00
67194;DHT22;54121;53.508;49.422;2023-04-15T12:13:45;28.00;1.00
67194;DHT22;54121;53.508;49.422;2023-04-15T12:16:12;28.70;1.00
67194;DHT22;54121;53.508;49.422;2023-04-15T12:18:38;28.40;1.00
67194;DHT22;54121;53.508;49.422;2023-04-15T12:21:10;28.10;1.00
67194;DHT22;54121;53.508;49.422;2023-04-15T12:23:47;29.00;1.00
67194;DHT22;54121;53.508;49.422;2023-04-15T12:26:14;28.30;1.00
67194;DHT22;54121;53.508;49.422;2023-04-15T12:28:40;28.30;1.00
67194;DHT22;54121;53.508;49.422;2023-04-15T12:31:07;28.60;1.00
67194;DHT22;54121;53.508;49.422;2023-04-15T12:33:36;28.90;1.00
67194;DHT22;54121;53.508;49.422;2023-04-15T12:36:06;29.10;1.00
67194;DHT22;54121;53.508;49.422;2023-04-15T12:38:34;28.20;1.00
67194;DHT22;54121;53.508;49.422;2023-04-15T12:41:00;29.20;1.00
67194;DHT22;54121;53.508;49.422;2023-04-15T12:43:27;29.00;1.00
67194;DHT22;54121;53.508;49.422;2023-04-15T12:45:53;29.30;1.00
67194;DHT22;54121;53.508;49.422;2023-04-15T12:48:20;29.00;1.00
67194;DHT22;54121;53.508;49.422;2023-04-15T12:50:47;28.50;1.00
67194;DHT22;54121;53.508;49.422;2023-04-15T12:53:13;28.70;1.00
67194;DHT22;54121;53.508;49.422;2023-04-15T12:55:39;29.40;1.00
67194;DHT22;54121;53.508;49.422;2023-04-15T12:58:06;29.40;1.00
67194;DHT22;54121;53.508;49.422;2023-04-15T13:00:33;29.00;1.00
67194;DHT22;54121;53.508;49.422;2023-04-15T13:03:00;29.30;1.00
67194;DHT22;54121;53.508;49.422;2023-04-15T13:05:26;28.80;1.00
67194;DHT22;54121;53.508;49.422;2023-04-15T13:07:52;28.80;1.00
67194;DHT22;54121;53.508;49.422;2023-04-15T13:10:19;28.60;1.00
67194;DHT22;54121;53.508;49.422;2023-04-15T13:12:47;29.00;1.00
67194;DHT22;54121;53.508;49.422;2023-04-15T13:15:17;29.20;1.00
67194;DHT22;54121;53.508;49.422;2023-04-15T13:17:45;28.60;1.00
67194;DHT22;54121;53.508;49.422;2023-04-15T13:20:11;28.20;1.00
67194;DHT22;54121;53.508;49.422;2023-04-15T13:22:40;28.30;1.00
67194;DHT22;54121;53.508;49.422;2023-04-15T13:25:09;27.90;1.00
67194;DHT22;54121;53.508;49.422;2023-04-15T13:27:35;27.10;1.00
67194;DHT22;54121;53.508;49.422;2023-04-15T13:30:01;27.80;1.00
67194;DHT22;54121;53.508;49.422;2023-04-15T13:32:28;27.20;1.00
67194;DHT22;54121;53.508;49.422;2023-04-15T13:34:54;27.70;1.00
67194;DHT22;54121;53.508;49.422;2023-04-15T13:37:24;27.60;1.00
67194;DHT22;54121;53.508;49.422;2023-04-15T13:39:53;27.00;1.00
67194;DHT22;54121;53.508;49.422;2023-04-15T13:42:22;26.80;1.00
67194;DHT22;54121;53.508;49.422;2023-04-15T13:44:51;26.60;1.00
67194;DHT22;54121;53.508;49.422;2023-04-15T13:47:20;26.50;1.00
67194;DHT22;54121;53.508;49.422;2023-04-15T13:49:49;26.60;1.00
67194;DHT22;54121;53.508;49.422;2023-04-15T13:52:15;26.70;1.00
67194;DHT22;54121;53.508;49.422;2023-04-15T13:54:41;26.20;1.00
67194;DHT22;54121;53.508;49.422;2023-04-15T13:57:07;26.00;1.00
67194;DHT22;54121;53.508;49.422;2023-04-15T13:59:34;25.40;1.00
67194;DHT22;54121;53.508;49.422;2023-04-15T14:02:05;26.20;1.00
67194;DHT22;54121;53.508;49.422;2023-04-15T14:04:31;26.20;1.00
67194;DHT22;54121;53.508;49.422;2023-04-15T14:07:00;25.80;1.00
67194;DHT22;54121;53.508;49.422;2023-04-15T14:09:26;25.80;1.00
67194;DHT22;54121;53.508;49.422;2023-04-15T14:11:58;25.60;1.00
67194;DHT22;54121;53.508;49.422;2023-04-15T14:14:25;25.60;1.00
67194;DHT22;54121;53.508;49.422;2023-04-15T14:16:55;26.00;1.00
67194;DHT22;54121;53.508;49.422;2023-04-15T14:19:26;25.30;1.00
67194;DHT22;54121;53.508;49.422;2023-04-15T14:21:53;25.50;1.00
67194;DHT22;54121;53.508;49.422;2023-04-15T14:24:19;25.30;1.00
67194;DHT22;54121;53.508;49.422;2023-04-15T14:26:49;24.80;1.00
67194;DHT22;54121;53.508;49.422;2023-04-15T14:29:18;24.40;1.00
67194;DHT22;54121;53.508;49.422;2023-04-15T14:31:44;24.50;1.00
67194;DHT22;54121;53.508;49.422;2023-04-15T14:34:16;24.20;1.00
67194;DHT22;54121;53.508;49.422;2023-04-15T14:36:42;24.50;1.00
67194;DHT22;54121;53.508;49.422;2023-04-15T14:39:13;24.10;1.00
67194;DHT22;54121;53.508;49.422;2023-04-15T14:41:44;23.70;1.00
67194;DHT22;54121;53.508;49.422;2023-04-15T14:44:10;23.90;1.00
67194;DHT22;54121;53.508;49.422;2023-04-15T14:46:37;23.20;1.10
67194;DHT22;54121;53.508;49.422;2023-04-15T14:49:04;22.90;1.40
67194;DHT22;54121;53.508;49.422;2023-04-15T14:51:30;23.10;1.40
67194;DHT22;54121;53.508;49.422;2023-04-15T14:53:58;22.60;1.50
67194;DHT22;54121;53.508;49.422;2023-04-15T14:56:25;22.10;2.00
67194;DHT22;54121;53.508;49.422;2023-04-15T14:58:52;21.70;2.00
67194;DHT22;54121;53.508;49.422;2023-04-15T15:01:22;21.70;2.10
67194;DHT22;54121;53.508;49.422;2023-04-15T15:03:50;21.40;2.30
67194;DHT22;54121;53.508;49.422;2023-04-15T15:06:19;20.90;2.60
67194;DHT22;54121;53.508;49.422;2023-04-15T15:08:45;20.40;2.70
67194;DHT22;54121;53.508;49.422;2023-04-15T15:11:12;20.60;2.70
67194;DHT22;54121;53.508;49.422;2023-04-15T15:13:42;20.20;2.90
67194;DHT22;54121;53.508;49.422;2023-04-15T15:16:08;20.20;2.90
67194;DHT22;54121;53.508;49.422;2023-04-15T15:18:37;19.70;3.20
67194;DHT22;54121;53.508;49.422;2023-04-15T15:21:03;19.70;3.10
67194;DHT22;54121;53.508;49.422;2023-04-15T15:23:31;19.40;3.40
67194;DHT22;54121;53.508;49.422;2023-04-15T15:25:58;19.00;3.70
67194;DHT22;54121;53.508;49.422;2023-04-15T15:28:29;18.90;3.80
67194;DHT22;54121;53.508;49.422;2023-04-15T15:30:57;18.40;4.10
67194;DHT22;54121;53.508;49.422;2023-04-15T15:33:24;18.30;4.10
67194;DHT22;54121;53.508;49.422;2023-04-15T15:35:54;18.00;4.40
67194;DHT22;54121;53.508;49.422;2023-04-15T15:38:23;17.60;4.70
67194;DHT22;54121;53.508;49.422;2023-04-15T15:40:52;17.20;4.80
67194;DHT22;54121;53.508;49.422;2023-04-15T15:43:21;17.20;5.10
67194;DHT22;54121;53.508;49.422;2023-04-15T15:45:47;16.70;5.30
67194;DHT22;54121;53.508;49.422;2023-04-15T15:48:16;16.60;5.50
67194;DHT22;54121;53.508;49.422;2023-04-15T15:50:44;16.70;5.60
67194;DHT22;54121;53.508;49.422;2023-04-15T15:53:10;16.50;5.70
67194;DHT22;54121;53.508;49.422;2023-04-15T15:55:39;16.20;5.90
67194;DHT22;54121;53.508;49.422;2023-04-15T15:58:07;16.00;6.00